createdAt,value
2023-04-27T00:00:31.231Z,219
2023-04-27T00:01:02.257Z,219
2023-04-27T00:01:35.965Z,219
2023-04-27T00:02:06.147Z,219
2023-04-27T00:02:39.159Z,219
2023-04-27T00:03:10.512Z,219
2023-04-27T00:03:43.184Z,219
2023-04-27T00:04:14.295Z,219
2023-04-27T00:04:47.319Z,219
2023-04-27T00:05:18.285Z,219
2023-04-27T00:05:51.091Z,219
2023-04-27T00:06:22.064Z,219
2023-04-27T00:06:54.964Z,219
2023-04-27T00:07:26.702Z,219
2023-04-27T00:07:58.643Z,219
2023-04-27T00:08:29.833Z,219
2023-04-27T00:09:02.882Z,219
2023-04-27T00:09:34.017Z,219
2023-04-27T00:10:06.664Z,219
2023-04-27T00:10:37.793Z,219
2023-04-27T00:11:10.778Z,219
2023-04-27T00:11:41.812Z,219
2023-04-27T00:12:14.614Z,219
2023-04-27T00:12:45.650Z,219
2023-04-27T00:13:18.654Z,219
2023-04-27T00:13:49.738Z,219
2023-04-27T00:14:22.488Z,219
2023-04-27T00:14:53.681Z,219
2023-04-27T00:15:26.664Z,219
2023-04-27T00:15:57.739Z,219
2023-04-27T00:16:30.463Z,219
2023-04-27T00:17:01.489Z,219
2023-04-27T00:17:34.422Z,219
2023-04-27T00:18:05.677Z,219
2023-04-27T00:18:38.295Z,219
2023-04-27T00:19:09.625Z,219
2023-04-27T00:19:45.352Z,219
2023-04-27T00:20:13.511Z,219
2023-04-27T00:20:46.206Z,219
2023-04-27T00:21:17.330Z,219
2023-04-27T00:21:50.179Z,219
2023-04-27T00:22:21.442Z,219
2023-04-27T00:22:54.150Z,219
2023-04-27T00:23:25.401Z,219
2023-04-27T00:23:58.312Z,219
2023-04-27T00:24:29.331Z,219
2023-04-27T00:25:02.316Z,219
2023-04-27T00:25:33.168Z,219
2023-04-27T00:26:06.071Z,219
2023-04-27T00:26:37.213Z,219
2023-04-27T00:27:09.950Z,219
2023-04-27T00:27:42.088Z,219
2023-04-27T00:28:13.989Z,219
2023-04-27T00:28:45.114Z,219
2023-04-27T00:29:17.792Z,219
2023-04-27T00:29:49.110Z,219
2023-04-27T00:30:22.613Z,219
2023-04-27T00:30:53.132Z,219
2023-04-27T00:31:25.974Z,219
2023-04-27T00:31:57.301Z,219
2023-04-27T00:32:29.955Z,219
2023-04-27T00:33:01.183Z,219
2023-04-27T00:33:33.774Z,219
2023-04-27T00:34:04.798Z,219
2023-04-27T00:34:37.766Z,219
2023-04-27T00:35:08.726Z,219
2023-04-27T00:35:41.482Z,219
2023-04-27T00:36:12.728Z,219
2023-04-27T00:36:45.746Z,219
2023-04-27T00:37:16.566Z,219
2023-04-27T00:37:49.520Z,219
2023-04-27T00:38:20.792Z,219
2023-04-27T00:38:53.728Z,219
2023-04-27T00:39:24.573Z,219
2023-04-27T00:39:58.208Z,219
2023-04-27T00:40:28.802Z,219
2023-04-27T00:41:01.650Z,219
2023-04-27T00:41:32.548Z,219
2023-04-27T00:42:05.358Z,219
2023-04-27T00:42:36.468Z,219
2023-04-27T00:43:09.526Z,219
2023-04-27T00:43:40.389Z,219
2023-04-27T00:44:13.483Z,219
2023-04-27T00:44:44.389Z,219
2023-04-27T00:45:17.647Z,219
2023-04-27T00:45:48.271Z,219
2023-04-27T00:46:21.242Z,219
2023-04-27T00:46:52.407Z,219
2023-04-27T00:47:25.264Z,219
2023-04-27T00:47:56.261Z,219
2023-04-27T00:48:29.158Z,219
2023-04-27T00:49:00.251Z,219
2023-04-27T00:49:33.155Z,219
2023-04-27T00:50:04.158Z,219
2023-04-27T00:50:37.030Z,219
2023-04-27T00:51:08.324Z,219
2023-04-27T00:51:41.152Z,219
2023-04-27T00:52:11.983Z,219
2023-04-27T00:52:44.925Z,219
2023-04-27T00:53:16.054Z,219
2023-04-27T00:53:48.815Z,219
2023-04-27T00:54:20.060Z,219
2023-04-27T00:54:52.866Z,219
2023-04-27T00:55:24.060Z,219
2023-04-27T00:55:56.814Z,219
2023-04-27T00:56:27.970Z,219
2023-04-27T00:57:00.917Z,219
2023-04-27T00:57:31.876Z,219
2023-04-27T00:58:04.740Z,219
2023-04-27T00:58:35.775Z,219
2023-04-27T00:59:08.687Z,219
2023-04-27T00:59:39.822Z,219
2023-04-27T01:00:12.870Z,219
2023-04-27T01:00:43.734Z,219
2023-04-27T01:01:16.777Z,219
2023-04-27T01:01:47.781Z,219
2023-04-27T01:02:20.626Z,219
2023-04-27T01:02:51.687Z,219
2023-04-27T01:03:24.701Z,219
2023-04-27T01:03:55.948Z,219
2023-04-27T01:04:28.552Z,219
2023-04-27T01:04:59.505Z,219
2023-04-27T01:05:32.748Z,219
2023-04-27T01:06:03.673Z,219
2023-04-27T01:06:36.298Z,219
2023-04-27T01:07:07.386Z,219
2023-04-27T01:07:40.486Z,219
2023-04-27T01:08:11.771Z,219
2023-04-27T01:08:44.250Z,219
2023-04-27T01:09:15.535Z,219
2023-04-27T01:09:48.334Z,219
2023-04-27T01:10:19.403Z,219
2023-04-27T01:10:52.180Z,219
2023-04-27T01:11:23.321Z,219
2023-04-27T01:11:56.091Z,219
2023-04-27T01:12:27.356Z,219
2023-04-27T01:13:00.112Z,219
2023-04-27T01:13:31.228Z,219
2023-04-27T01:14:04.199Z,219
2023-04-27T01:14:35.215Z,219
2023-04-27T01:15:08.429Z,219
2023-04-27T01:15:39.132Z,219
2023-04-27T01:16:11.888Z,219
2023-04-27T01:16:43.272Z,219
2023-04-27T01:17:15.847Z,219
2023-04-27T01:17:46.992Z,219
2023-04-27T01:18:19.882Z,219
2023-04-27T01:18:51.140Z,219
2023-04-27T01:19:23.901Z,219
2023-04-27T01:19:54.906Z,219
2023-04-27T01:20:27.861Z,219
2023-04-27T01:20:58.930Z,219
2023-04-27T01:21:31.733Z,219
2023-04-27T01:22:02.787Z,219
2023-04-27T01:22:35.740Z,219
2023-04-27T01:23:07.351Z,219
2023-04-27T01:23:39.724Z,219
2023-04-27T01:24:10.903Z,219
2023-04-27T01:24:43.765Z,219
2023-04-27T01:25:14.602Z,219
2023-04-27T01:25:47.802Z,219
2023-04-27T01:26:18.667Z,219
2023-04-27T01:26:51.645Z,219
2023-04-27T01:27:22.513Z,219
2023-04-27T01:27:55.337Z,219
2023-04-27T01:28:26.526Z,219
2023-04-27T01:28:59.546Z,219
2023-04-27T01:29:30.893Z,219
2023-04-27T01:30:03.488Z,219
2023-04-27T01:30:34.450Z,219
2023-04-27T01:31:07.444Z,219
2023-04-27T01:31:38.352Z,219
2023-04-27T01:32:11.319Z,219
2023-04-27T01:32:42.880Z,219
2023-04-27T01:33:15.452Z,219
2023-04-27T01:33:46.334Z,219
2023-04-27T01:34:19.365Z,219
2023-04-27T01:34:50.431Z,219
2023-04-27T01:35:23.310Z,219
2023-04-27T01:35:54.186Z,219
2023-04-27T01:36:27.049Z,219
2023-04-27T01:36:58.375Z,219
2023-04-27T01:37:31.216Z,219
2023-04-27T01:38:02.159Z,219
2023-04-27T01:38:35.010Z,219
2023-04-27T01:39:06.111Z,219
2023-04-27T01:39:39.059Z,219
2023-04-27T01:40:09.989Z,219
2023-04-27T01:40:42.982Z,219
2023-04-27T01:41:13.995Z,219
2023-04-27T01:41:46.843Z,219
2023-04-27T01:42:17.873Z,219
2023-04-27T01:42:50.945Z,219
2023-04-27T01:43:21.970Z,219
2023-04-27T01:43:54.880Z,219
2023-04-27T01:44:25.770Z,219
2023-04-27T01:44:58.734Z,219
2023-04-27T01:45:29.923Z,219
2023-04-27T01:46:02.812Z,219
2023-04-27T01:46:34.224Z,219
2023-04-27T01:47:06.670Z,219
2023-04-27T01:47:37.761Z,219
2023-04-27T01:48:10.940Z,219
2023-04-27T01:48:41.697Z,219
2023-04-27T01:49:14.598Z,219
2023-04-27T01:49:45.800Z,219
2023-04-27T01:50:18.724Z,219
2023-04-27T01:50:49.531Z,219
2023-04-27T01:51:23.955Z,219
2023-04-27T01:51:53.716Z,219
2023-04-27T01:52:26.624Z,219
2023-04-27T01:52:57.477Z,219
2023-04-27T01:53:30.742Z,219
2023-04-27T01:54:01.543Z,219
2023-04-27T01:54:34.648Z,219
2023-04-27T01:55:05.412Z,219
2023-04-27T01:55:38.279Z,219
2023-04-27T01:56:09.870Z,219
2023-04-27T01:56:42.346Z,219
2023-04-27T01:57:13.298Z,219
2023-04-27T01:57:46.192Z,219
2023-04-27T01:58:17.323Z,219
2023-04-27T01:58:50.380Z,219
2023-04-27T01:59:21.298Z,219
2023-04-27T01:59:54.114Z,219
2023-04-27T02:00:25.416Z,219
2023-04-27T02:00:58.168Z,219
2023-04-27T02:01:29.243Z,219
2023-04-27T02:02:02.163Z,219
2023-04-27T02:02:33.486Z,219
2023-04-27T02:03:05.944Z,219
2023-04-27T02:03:37.066Z,219
2023-04-27T02:04:10.059Z,219
2023-04-27T02:04:41.331Z,219
2023-04-27T02:05:13.831Z,219
2023-04-27T02:05:44.905Z,219
2023-04-27T02:06:17.862Z,219
2023-04-27T02:06:48.997Z,219
2023-04-27T02:07:21.646Z,219
2023-04-27T02:07:52.885Z,219
2023-04-27T02:08:25.763Z,219
2023-04-27T02:08:56.907Z,219
2023-04-27T02:09:29.601Z,219
2023-04-27T02:10:00.905Z,219
2023-04-27T02:10:33.607Z,219
2023-04-27T02:11:04.916Z,219
2023-04-27T02:11:37.540Z,219
2023-04-27T02:12:08.648Z,219
2023-04-27T02:12:41.877Z,219
2023-04-27T02:13:12.711Z,219
2023-04-27T02:13:45.549Z,219
2023-04-27T02:14:16.599Z,219
2023-04-27T02:14:49.558Z,219
2023-04-27T02:15:20.900Z,219
2023-04-27T02:15:53.693Z,219
2023-04-27T02:16:24.550Z,219
2023-04-27T02:16:57.510Z,219
2023-04-27T02:17:28.580Z,219
2023-04-27T02:18:01.362Z,219
2023-04-27T02:18:32.469Z,219
2023-04-27T02:19:05.434Z,219
2023-04-27T02:19:36.439Z,219
2023-04-27T02:20:09.226Z,219
2023-04-27T02:20:40.378Z,219
2023-04-27T02:21:13.274Z,219
2023-04-27T02:21:44.376Z,219
2023-04-27T02:22:17.077Z,219
2023-04-27T02:22:48.279Z,219
2023-04-27T02:23:21.427Z,219
2023-04-27T02:23:52.324Z,219
2023-04-27T02:24:25.033Z,219
2023-04-27T02:24:56.171Z,219
2023-04-27T02:25:29.102Z,219
2023-04-27T02:26:00.276Z,219
2023-04-27T02:26:33.942Z,219
2023-04-27T02:27:04.087Z,219
2023-04-27T02:27:36.977Z,219
2023-04-27T02:28:08.157Z,219
2023-04-27T02:28:41.199Z,219
2023-04-27T02:29:12.241Z,219
2023-04-27T02:29:44.893Z,219
2023-04-27T02:30:16.115Z,219
2023-04-27T02:30:48.780Z,219
2023-04-27T02:31:19.986Z,219
2023-04-27T02:31:52.993Z,219
2023-04-27T02:32:24.122Z,219
2023-04-27T02:32:56.670Z,219
2023-04-27T02:33:27.813Z,219
2023-04-27T02:34:00.868Z,219
2023-04-27T02:34:31.648Z,219
2023-04-27T02:35:04.773Z,219
2023-04-27T02:35:35.694Z,219
2023-04-27T02:36:08.750Z,219
2023-04-27T02:36:39.675Z,219
2023-04-27T02:37:12.504Z,219
2023-04-27T02:37:43.751Z,219
2023-04-27T02:38:16.575Z,219
2023-04-27T02:38:47.741Z,219
2023-04-27T02:39:20.558Z,219
2023-04-27T02:39:51.598Z,219
2023-04-27T02:40:24.496Z,219
2023-04-27T02:40:55.442Z,219
2023-04-27T02:41:28.366Z,219
2023-04-27T02:41:59.491Z,219
2023-04-27T02:42:32.297Z,219
2023-04-27T02:43:03.291Z,219
2023-04-27T02:43:36.257Z,219
2023-04-27T02:44:07.367Z,219
2023-04-27T02:44:40.358Z,219
2023-04-27T02:45:11.547Z,219
2023-04-27T02:45:44.146Z,219
2023-04-27T02:46:15.327Z,219
2023-04-27T02:46:48.238Z,219
2023-04-27T02:47:19.181Z,219
2023-04-27T02:47:52.121Z,219
2023-04-27T02:48:23.170Z,219
2023-04-27T02:48:56.199Z,219
2023-04-27T02:49:27.107Z,219
2023-04-27T02:50:00.018Z,219
2023-04-27T02:50:31.338Z,219
2023-04-27T02:51:04.010Z,219
2023-04-27T02:51:34.952Z,219
2023-04-27T02:52:07.921Z,219
2023-04-27T02:52:39.033Z,219
2023-04-27T02:53:11.919Z,219
2023-04-27T02:53:43.075Z,219
2023-04-27T02:54:15.816Z,219
2023-04-27T02:54:46.950Z,219
2023-04-27T02:55:19.964Z,219
2023-04-27T02:55:51.198Z,219
2023-04-27T02:56:23.821Z,219
2023-04-27T02:56:54.920Z,219
2023-04-27T02:57:27.826Z,219
2023-04-27T02:57:58.721Z,219
2023-04-27T02:58:31.737Z,219
2023-04-27T02:59:02.783Z,219
2023-04-27T02:59:35.734Z,219
2023-04-27T03:00:07.070Z,219
2023-04-27T03:00:39.460Z,219
2023-04-27T03:01:10.915Z,219
2023-04-27T03:01:43.701Z,219
2023-04-27T03:02:14.553Z,219
2023-04-27T03:02:47.524Z,219
2023-04-27T03:03:18.805Z,219
2023-04-27T03:03:51.868Z,219
2023-04-27T03:04:22.557Z,219
2023-04-27T03:04:55.392Z,219
2023-04-27T03:05:26.528Z,219
2023-04-27T03:05:59.489Z,219
2023-04-27T03:06:30.418Z,219
2023-04-27T03:07:03.280Z,219
2023-04-27T03:07:34.382Z,219
2023-04-27T03:08:07.441Z,219
2023-04-27T03:08:38.349Z,219
2023-04-27T03:09:11.565Z,219
2023-04-27T03:09:42.365Z,219
2023-04-27T03:10:15.212Z,219
2023-04-27T03:10:46.221Z,219
2023-04-27T03:11:19.198Z,219
2023-04-27T03:11:50.414Z,219
2023-04-27T03:12:23.036Z,219
2023-04-27T03:12:54.143Z,219
2023-04-27T03:13:27.130Z,219
2023-04-27T03:13:58.223Z,219
2023-04-27T03:14:31.013Z,219
2023-04-27T03:15:02.288Z,219
2023-04-27T03:15:36.089Z,219
2023-04-27T03:16:06.144Z,219
2023-04-27T03:16:39.072Z,219
2023-04-27T03:17:09.980Z,219
2023-04-27T03:17:42.881Z,219
2023-04-27T03:18:14.003Z,219
2023-04-27T03:18:46.954Z,219
2023-04-27T03:19:17.904Z,219
2023-04-27T03:19:51.001Z,219
2023-04-27T03:20:21.912Z,219
2023-04-27T03:20:54.649Z,219
2023-04-27T03:21:25.812Z,219
2023-04-27T03:21:59.844Z,219
2023-04-27T03:22:29.845Z,219
2023-04-27T03:23:02.576Z,219
2023-04-27T03:23:33.706Z,219
2023-04-27T03:24:06.593Z,219
2023-04-27T03:24:37.543Z,219
2023-04-27T03:25:10.601Z,219
2023-04-27T03:25:41.587Z,219
2023-04-27T03:26:14.510Z,219
2023-04-27T03:26:45.582Z,219
2023-04-27T03:27:18.389Z,219
2023-04-27T03:27:49.599Z,219
2023-04-27T03:28:22.547Z,219
2023-04-27T03:28:53.724Z,219
2023-04-27T03:29:26.352Z,219
2023-04-27T03:29:57.459Z,219
2023-04-27T03:30:30.475Z,219
2023-04-27T03:31:01.498Z,219
2023-04-27T03:31:34.241Z,219
2023-04-27T03:32:05.413Z,219
2023-04-27T03:32:38.255Z,219
2023-04-27T03:33:09.249Z,219
2023-04-27T03:33:42.229Z,219
2023-04-27T03:34:13.280Z,219
2023-04-27T03:34:46.174Z,219
2023-04-27T03:35:17.172Z,219
2023-04-27T03:35:50.105Z,219
2023-04-27T03:36:21.348Z,219
2023-04-27T03:36:54.220Z,219
2023-04-27T03:37:25.018Z,219
2023-04-27T03:37:58.620Z,219
2023-04-27T03:38:29.076Z,219
2023-04-27T03:39:02.060Z,219
2023-04-27T03:39:32.977Z,219
2023-04-27T03:40:05.866Z,219
2023-04-27T03:40:36.993Z,219
2023-04-27T03:41:09.950Z,219
2023-04-27T03:41:40.957Z,219
2023-04-27T03:42:13.813Z,219
2023-04-27T03:42:44.921Z,219
2023-04-27T03:43:17.845Z,219
2023-04-27T03:43:48.814Z,219
2023-04-27T03:44:21.757Z,219
2023-04-27T03:44:52.827Z,219
2023-04-27T03:45:25.812Z,219
2023-04-27T03:45:56.748Z,219
2023-04-27T03:46:29.695Z,219
2023-04-27T03:47:00.916Z,219
2023-04-27T03:47:33.675Z,219
2023-04-27T03:48:04.667Z,219
2023-04-27T03:48:37.572Z,219
2023-04-27T03:49:08.661Z,219
2023-04-27T03:49:41.623Z,219
2023-04-27T03:50:12.562Z,219
2023-04-27T03:50:45.431Z,219
2023-04-27T03:51:16.615Z,219
2023-04-27T03:51:49.701Z,219
2023-04-27T03:52:20.659Z,219
2023-04-27T03:52:53.883Z,219
2023-04-27T03:53:24.524Z,219
2023-04-27T03:53:57.420Z,219
2023-04-27T03:54:28.347Z,219
2023-04-27T03:55:01.355Z,219
2023-04-27T03:55:32.422Z,219
2023-04-27T03:56:05.330Z,219
2023-04-27T03:56:36.308Z,219
2023-04-27T03:57:09.292Z,219
2023-04-27T03:57:40.460Z,219
2023-04-27T03:58:13.246Z,219
2023-04-27T03:58:44.266Z,219
2023-04-27T03:59:17.440Z,219
2023-04-27T03:59:48.465Z,219
2023-04-27T04:00:21.241Z,219
2023-04-27T04:00:52.101Z,219
2023-04-27T04:01:25.139Z,219
2023-04-27T04:01:57.091Z,219
2023-04-27T04:02:29.063Z,219
2023-04-27T04:03:00.253Z,219
2023-04-27T04:03:33.310Z,219
2023-04-27T04:04:04.439Z,219
2023-04-27T04:04:37.429Z,219
2023-04-27T04:05:08.144Z,219
2023-04-27T04:05:40.957Z,219
2023-04-27T04:06:12.003Z,219
2023-04-27T04:06:44.708Z,219
2023-04-27T04:07:15.846Z,219
2023-04-27T04:07:48.787Z,219
2023-04-27T04:08:19.967Z,219
2023-04-27T04:08:52.725Z,219
2023-04-27T04:09:24.168Z,219
2023-04-27T04:09:56.690Z,219
2023-04-27T04:10:27.871Z,219
2023-04-27T04:11:00.591Z,219
2023-04-27T04:11:31.645Z,219
2023-04-27T04:12:04.653Z,219
2023-04-27T04:12:35.718Z,219
2023-04-27T04:13:08.449Z,219
2023-04-27T04:13:39.600Z,219
2023-04-27T04:14:12.509Z,219
2023-04-27T04:14:43.664Z,219
2023-04-27T04:15:16.510Z,219
2023-04-27T04:15:47.603Z,219
2023-04-27T04:16:20.643Z,219
2023-04-27T04:16:51.548Z,219
2023-04-27T04:17:24.322Z,219
2023-04-27T04:17:55.426Z,219
2023-04-27T04:18:28.403Z,219
2023-04-27T04:18:59.477Z,219
2023-04-27T04:19:32.191Z,219
2023-04-27T04:20:03.386Z,219
2023-04-27T04:20:36.236Z,219
2023-04-27T04:21:07.424Z,219
2023-04-27T04:21:40.124Z,219
2023-04-27T04:22:11.374Z,219
2023-04-27T04:22:44.289Z,219
2023-04-27T04:23:15.430Z,219
2023-04-27T04:23:48.279Z,219
2023-04-27T04:24:19.179Z,219
2023-04-27T04:24:52.138Z,219
2023-04-27T04:25:23.226Z,219
2023-04-27T04:25:56.121Z,219
2023-04-27T04:26:27.079Z,219
2023-04-27T04:27:00.048Z,219
2023-04-27T04:27:31.345Z,219
2023-04-27T04:28:04.032Z,219
2023-04-27T04:28:35.001Z,219
2023-04-27T04:29:09.616Z,219
2023-04-27T04:29:39.081Z,219
2023-04-27T04:30:11.842Z,219
2023-04-27T04:30:42.929Z,219
2023-04-27T04:31:15.941Z,219
2023-04-27T04:31:47.147Z,219
2023-04-27T04:32:19.988Z,219
2023-04-27T04:32:51.107Z,219
2023-04-27T04:33:23.919Z,219
2023-04-27T04:33:54.850Z,219
2023-04-27T04:34:27.506Z,219
2023-04-27T04:34:58.990Z,219
2023-04-27T04:35:31.684Z,219
2023-04-27T04:36:02.581Z,219
2023-04-27T04:36:35.670Z,219
2023-04-27T04:37:06.631Z,219
2023-04-27T04:37:39.441Z,219
2023-04-27T04:38:10.821Z,219
2023-04-27T04:38:43.543Z,219
2023-04-27T04:39:14.963Z,219
2023-04-27T04:39:47.528Z,219
2023-04-27T04:40:18.433Z,219
2023-04-27T04:40:51.379Z,219
2023-04-27T04:41:22.463Z,219
2023-04-27T04:41:55.371Z,219
2023-04-27T04:42:26.324Z,219
2023-04-27T04:42:59.294Z,219
2023-04-27T04:43:30.456Z,219
2023-04-27T04:44:03.313Z,219
2023-04-27T04:44:34.252Z,219
2023-04-27T04:45:07.570Z,219
2023-04-27T04:45:38.284Z,219
2023-04-27T04:46:11.686Z,219
2023-04-27T04:46:42.234Z,219
2023-04-27T04:47:15.141Z,219
2023-04-27T04:47:46.222Z,219
2023-04-27T04:48:19.173Z,219
2023-04-27T04:48:51.014Z,219
2023-04-27T04:49:23.001Z,219
2023-04-27T04:49:54.181Z,219
2023-04-27T04:50:27.000Z,219
2023-04-27T04:50:57.974Z,219
2023-04-27T04:51:30.944Z,219
2023-04-27T04:52:02.050Z,219
2023-04-27T04:52:36.044Z,219
2023-04-27T04:53:05.873Z,219
2023-04-27T04:53:38.918Z,219
2023-04-27T04:54:09.988Z,219
2023-04-27T04:54:42.919Z,219
2023-04-27T04:55:13.875Z,219
2023-04-27T04:55:46.796Z,219
2023-04-27T04:56:17.921Z,219
2023-04-27T04:56:51.029Z,219
2023-04-27T04:57:22.002Z,219
2023-04-27T04:57:54.663Z,219
2023-04-27T04:58:25.868Z,219
2023-04-27T04:58:58.810Z,219
2023-04-27T04:59:31.960Z,219
2023-04-27T05:00:02.809Z,219
2023-04-27T05:00:33.790Z,219
2023-04-27T05:01:06.785Z,219
2023-04-27T05:01:37.566Z,219
2023-04-27T05:02:10.534Z,219
2023-04-27T05:02:42.036Z,219
2023-04-27T05:03:14.829Z,219
2023-04-27T05:03:45.601Z,219
2023-04-27T05:04:18.651Z,219
2023-04-27T05:04:49.738Z,219
2023-04-27T05:05:22.641Z,219
2023-04-27T05:05:53.436Z,219
2023-04-27T05:06:26.369Z,219
2023-04-27T05:06:57.452Z,219
2023-04-27T05:07:30.457Z,219
2023-04-27T05:08:01.312Z,219
2023-04-27T05:08:34.621Z,219
2023-04-27T05:09:05.359Z,219
2023-04-27T05:09:38.123Z,219
2023-04-27T05:10:09.642Z,219
2023-04-27T05:10:42.196Z,219
2023-04-27T05:11:13.292Z,219
2023-04-27T05:11:46.031Z,219
2023-04-27T05:12:17.098Z,219
2023-04-27T05:12:50.100Z,219
2023-04-27T05:13:21.350Z,219
2023-04-27T05:13:54.232Z,220
2023-04-27T05:14:25.020Z,220
2023-04-27T05:14:57.998Z,233
2023-04-27T05:15:29.199Z,234
2023-04-27T05:16:01.925Z,235
2023-04-27T05:16:32.977Z,235
2023-04-27T05:17:05.862Z,234
2023-04-27T05:17:37.069Z,235
2023-04-27T05:18:09.811Z,235
2023-04-27T05:18:40.986Z,235
2023-04-27T05:19:14.141Z,235
2023-04-27T05:19:44.978Z,235
2023-04-27T05:20:17.720Z,235
2023-04-27T05:20:48.868Z,235
2023-04-27T05:21:22.141Z,235
2023-04-27T05:21:52.853Z,235
2023-04-27T05:22:25.581Z,235
2023-04-27T05:22:56.838Z,235
2023-04-27T05:23:29.701Z,235
2023-04-27T05:24:00.713Z,235
2023-04-27T05:24:33.497Z,235
2023-04-27T05:25:04.680Z,235
2023-04-27T05:25:37.595Z,235
2023-04-27T05:26:08.501Z,235
2023-04-27T05:26:41.576Z,235
2023-04-27T05:27:12.568Z,235
2023-04-27T05:27:45.423Z,235
2023-04-27T05:28:16.408Z,235
2023-04-27T05:28:49.428Z,235
2023-04-27T05:29:20.685Z,235
2023-04-27T05:29:53.257Z,236
2023-04-27T05:30:24.631Z,236
2023-04-27T05:30:57.716Z,236
2023-04-27T05:31:28.437Z,236
2023-04-27T05:32:01.408Z,237
2023-04-27T05:32:32.303Z,237
2023-04-27T05:33:05.382Z,237
2023-04-27T05:33:36.336Z,240
2023-04-27T05:34:09.181Z,240
2023-04-27T05:34:40.368Z,244
2023-04-27T05:35:13.177Z,250
2023-04-27T05:35:44.301Z,247
2023-04-27T05:36:17.113Z,247
2023-04-27T05:36:48.099Z,244
2023-04-27T05:37:21.228Z,250
2023-04-27T05:37:52.157Z,247
2023-04-27T05:38:24.892Z,246
2023-04-27T05:38:55.995Z,246
2023-04-27T05:39:29.472Z,246
2023-04-27T05:40:00.115Z,246
2023-04-27T05:40:32.802Z,246
2023-04-27T05:41:03.964Z,246
2023-04-27T05:41:37.771Z,246
2023-04-27T05:42:08.066Z,246
2023-04-27T05:42:40.936Z,246
2023-04-27T05:43:11.856Z,246
2023-04-27T05:43:44.845Z,246
2023-04-27T05:44:15.896Z,246
2023-04-27T05:44:48.641Z,246
2023-04-27T05:45:19.882Z,246
2023-04-27T05:45:52.766Z,246
2023-04-27T05:46:23.738Z,246
2023-04-27T05:46:56.679Z,246
2023-04-27T05:47:27.779Z,246
2023-04-27T05:48:00.920Z,246
2023-04-27T05:48:31.881Z,246
2023-04-27T05:49:04.570Z,247
2023-04-27T05:49:35.604Z,247
2023-04-27T05:50:09.570Z,247
2023-04-27T05:50:39.473Z,246
2023-04-27T05:51:12.336Z,246
2023-04-27T05:51:43.546Z,246
2023-04-27T05:52:16.336Z,246
2023-04-27T05:52:47.417Z,246
2023-04-27T05:53:20.534Z,246
2023-04-27T05:53:51.521Z,246
2023-04-27T05:54:24.406Z,246
2023-04-27T05:54:55.300Z,246
2023-04-27T05:55:28.259Z,246
2023-04-27T05:55:59.391Z,247
2023-04-27T05:56:32.258Z,247
2023-04-27T05:57:03.215Z,246
2023-04-27T05:57:36.356Z,246
2023-04-27T05:58:09.238Z,246
2023-04-27T05:58:40.541Z,250
2023-04-27T05:59:11.408Z,247
2023-04-27T05:59:44.024Z,248
2023-04-27T06:00:15.438Z,247
2023-04-27T06:00:48.142Z,247
2023-04-27T06:01:19.586Z,247
2023-04-27T06:01:52.097Z,247
2023-04-27T06:02:23.475Z,247
2023-04-27T06:02:56.046Z,247
2023-04-27T06:03:27.357Z,247
2023-04-27T06:04:00.039Z,247
2023-04-27T06:04:31.287Z,247
2023-04-27T06:05:03.970Z,251
2023-04-27T06:05:35.248Z,261
2023-04-27T06:06:08.069Z,253
2023-04-27T06:06:39.300Z,249
2023-04-27T06:07:11.847Z,251
2023-04-27T06:07:42.911Z,244
2023-04-27T06:08:15.752Z,247
2023-04-27T06:08:46.945Z,245
2023-04-27T06:09:19.868Z,243
2023-04-27T06:09:51.022Z,247
2023-04-27T06:10:23.917Z,243
2023-04-27T06:10:54.660Z,243
2023-04-27T06:11:27.563Z,243
2023-04-27T06:11:58.693Z,246
2023-04-27T06:12:31.617Z,260
2023-04-27T06:13:02.567Z,247
2023-04-27T06:13:35.460Z,252
2023-04-27T06:14:06.601Z,247
2023-04-27T06:14:39.539Z,246
2023-04-27T06:15:10.804Z,252
2023-04-27T06:15:43.536Z,242
2023-04-27T06:16:14.647Z,242
2023-04-27T06:16:47.442Z,243
2023-04-27T06:17:18.385Z,243
2023-04-27T06:17:51.576Z,243
2023-04-27T06:18:22.398Z,243
2023-04-27T06:18:55.476Z,243
2023-04-27T06:19:26.287Z,243
2023-04-27T06:19:59.261Z,243
2023-04-27T06:20:30.481Z,243
2023-04-27T06:21:03.079Z,243
2023-04-27T06:21:34.256Z,243
2023-04-27T06:22:07.095Z,243
2023-04-27T06:22:38.312Z,243
2023-04-27T06:23:11.279Z,243
2023-04-27T06:23:42.148Z,243
2023-04-27T06:24:15.062Z,246
2023-04-27T06:24:46.188Z,243
2023-04-27T06:25:19.041Z,244
2023-04-27T06:25:50.085Z,243
2023-04-27T06:26:23.115Z,243
2023-04-27T06:26:54.246Z,243
2023-04-27T06:27:26.889Z,243
2023-04-27T06:27:57.982Z,249
2023-04-27T06:28:31.192Z,246
2023-04-27T06:29:02.081Z,245
2023-04-27T06:29:34.876Z,245
2023-04-27T06:30:06.334Z,245
2023-04-27T06:30:39.851Z,245
2023-04-27T06:31:09.818Z,244
2023-04-27T06:31:42.835Z,245
2023-04-27T06:32:13.853Z,245
2023-04-27T06:32:46.798Z,246
2023-04-27T06:33:17.692Z,245
2023-04-27T06:33:50.876Z,245
2023-04-27T06:34:21.876Z,245
2023-04-27T06:34:54.567Z,245
2023-04-27T06:35:25.656Z,245
2023-04-27T06:35:58.523Z,247
2023-04-27T06:36:29.718Z,247
2023-04-27T06:37:02.543Z,260
2023-04-27T06:37:34.094Z,248
2023-04-27T06:38:07.881Z,248
2023-04-27T06:38:37.584Z,248
2023-04-27T06:39:10.461Z,248
2023-04-27T06:39:41.616Z,248
2023-04-27T06:40:15.421Z,247
2023-04-27T06:40:45.574Z,248
2023-04-27T06:41:18.573Z,247
2023-04-27T06:41:49.429Z,251
2023-04-27T06:42:22.396Z,249
2023-04-27T06:42:53.304Z,247
2023-04-27T06:43:26.374Z,248
2023-04-27T06:43:58.689Z,248
2023-04-27T06:44:30.326Z,248
2023-04-27T06:45:01.509Z,263
2023-04-27T06:45:34.179Z,245
2023-04-27T06:46:05.349Z,234
2023-04-27T06:46:38.082Z,247
2023-04-27T06:47:09.384Z,244
2023-04-27T06:47:42.204Z,247
2023-04-27T06:48:13.420Z,245
2023-04-27T06:48:46.483Z,249
2023-04-27T06:49:17.111Z,247
2023-04-27T06:49:50.125Z,245
2023-04-27T06:50:21.634Z,245
2023-04-27T06:50:53.920Z,239
2023-04-27T06:51:25.013Z,240
2023-04-27T06:51:57.847Z,247
2023-04-27T06:52:29.173Z,245
2023-04-27T06:53:01.768Z,247
2023-04-27T06:53:32.893Z,245
2023-04-27T06:54:05.841Z,246
2023-04-27T06:54:36.983Z,246
2023-04-27T06:55:09.671Z,246
2023-04-27T06:55:43.187Z,247
2023-04-27T06:56:13.795Z,256
2023-04-27T06:56:44.944Z,253
2023-04-27T06:57:17.689Z,256
2023-04-27T06:57:48.840Z,263
2023-04-27T06:58:21.650Z,250
2023-04-27T06:58:52.800Z,244
2023-04-27T06:59:25.522Z,250
2023-04-27T06:59:56.748Z,244
2023-04-27T07:00:29.794Z,243
2023-04-27T07:01:00.847Z,248
2023-04-27T07:01:33.524Z,248
2023-04-27T07:02:04.590Z,247
2023-04-27T07:02:37.642Z,242
2023-04-27T07:03:08.663Z,240
2023-04-27T07:03:41.805Z,240
2023-04-27T07:04:12.557Z,240
2023-04-27T07:04:45.534Z,243
2023-04-27T07:05:16.411Z,263
2023-04-27T07:05:49.328Z,287
2023-04-27T07:06:20.543Z,241
2023-04-27T07:06:53.409Z,245
2023-04-27T07:07:24.534Z,267
2023-04-27T07:07:57.203Z,248
2023-04-27T07:08:28.349Z,230
2023-04-27T07:09:01.536Z,239
2023-04-27T07:09:32.850Z,240
2023-04-27T07:10:05.245Z,238
2023-04-27T07:10:36.329Z,233
2023-04-27T07:11:09.063Z,236
2023-04-27T07:11:40.315Z,230
2023-04-27T07:12:13.111Z,241
2023-04-27T07:12:44.284Z,238
2023-04-27T07:13:16.965Z,253
2023-04-27T07:13:48.187Z,245
2023-04-27T07:14:21.244Z,237
2023-04-27T07:14:51.971Z,238
2023-04-27T07:15:24.983Z,237
2023-04-27T07:15:56.007Z,236
2023-04-27T07:16:28.970Z,248
2023-04-27T07:16:59.901Z,292
2023-04-27T07:17:33.025Z,261
2023-04-27T07:18:03.967Z,250
2023-04-27T07:18:36.864Z,305
2023-04-27T07:19:07.900Z,242
2023-04-27T07:19:41.001Z,252
2023-04-27T07:20:11.889Z,254
2023-04-27T07:20:44.874Z,287